map of KMYZ home
KMYZ - Airport
Location
City:  Marysville, Kansas, United States
Name:Marysville Municipal Airport
ICAO:KMYZ
FAA LID:MYZ

Details
Type:Airport (Airfield)
Use:Public/Civil
Latitude:3951'23"N (39.856429)
Longitude:9637'51"W (-96.630712)
Datum:WGS 1984
Elevation:1283 ft (391 m)
Variation:3.01E (WMM2015 magnetic declination)
-0.10 annual change
Runways:1
Longest:4200 × 60 ft (1280 × 18.5 m), paved

Time
Time Zone:UTC-6 (DST-5)
Local Time:

Weather
METAR:KMYZ 210835Z AUTO 16004KT 10SM CLR 01/M02 A3036 RMK AO2

Related Locations
Nearby:
Farthest:YAUG: 10655 mi / 17148 km
Augusta [Augusta Airport], WA, AU

Find:

   beyond  
but within

Other Information
Maps:
NOTAMs:
Links:
Sources:

  
  • flag of United States
  • flag of Kansas
  

Sectional Chart

Flight Planning
at skyvector.com

Satellite Image

Google Maps Satellite view

 

Copyright © 2004-2018 Karl L. Swartz. All rights reserved.
The Great Circle Mapper name and logo are trademarks of the Great Circle Mapper.
All other trademarks mentioned herein belong to their respective owners.
Please see credits for attibutions and further copyright information.

  Follow gcmap on Facebook Follow gcmap on Twitter Follow gcmap on Google+ GCmap on LinkedIn

hCard Microformat

Geo Microformat